sensor_id;sensor_type;location;lat;lon;timestamp;P1;durP1;ratioP1;P2;durP2;ratioP2
46767;SDS011;69007;48.978;18.066;2023-05-10T00:01:18;3.35;;;2.15;;
46767;SDS011;69007;48.978;18.066;2023-05-10T00:03:45;6.72;;;2.13;;
46767;SDS011;69007;48.978;18.066;2023-05-10T00:06:12;5.32;;;2.20;;
46767;SDS011;69007;48.978;18.066;2023-05-10T00:08:38;3.90;;;2.30;;
46767;SDS011;69007;48.978;18.066;2023-05-10T00:11:06;5.25;;;2.50;;
46767;SDS011;69007;48.978;18.066;2023-05-10T00:13:37;5.95;;;2.70;;
46767;SDS011;69007;48.978;18.066;2023-05-10T00:16:03;4.35;;;2.10;;
46767;SDS011;69007;48.978;18.066;2023-05-10T00:18:32;3.22;;;2.35;;
46767;SDS011;69007;48.978;18.066;2023-05-10T00:21:00;6.45;;;2.22;;
46767;SDS011;69007;48.978;18.066;2023-05-10T00:23:26;3.97;;;2.28;;
46767;SDS011;69007;48.978;18.066;2023-05-10T00:25:51;3.28;;;2.22;;
46767;SDS011;69007;48.978;18.066;2023-05-10T00:28:16;2.77;;;2.20;;
46767;SDS011;69007;48.978;18.066;2023-05-10T00:30:42;3.08;;;2.33;;
46767;SDS011;69007;48.978;18.066;2023-05-10T00:33:07;6.50;;;2.25;;
46767;SDS011;69007;48.978;18.066;2023-05-10T00:35:32;3.15;;;2.22;;
46767;SDS011;69007;48.978;18.066;2023-05-10T00:37:58;2.97;;;2.13;;
46767;SDS011;69007;48.978;18.066;2023-05-10T00:40:24;4.95;;;2.58;;
46767;SDS011;69007;48.978;18.066;2023-05-10T00:42:49;5.22;;;2.55;;
46767;SDS011;69007;48.978;18.066;2023-05-10T00:45:14;3.03;;;2.30;;
46767;SDS011;69007;48.978;18.066;2023-05-10T00:47:40;5.30;;;2.38;;
46767;SDS011;69007;48.978;18.066;2023-05-10T00:50:05;3.80;;;2.25;;
46767;SDS011;69007;48.978;18.066;2023-05-10T00:52:32;3.30;;;2.63;;
46767;SDS011;69007;48.978;18.066;2023-05-10T00:54:57;2.08;;;1.92;;
46767;SDS011;69007;48.978;18.066;2023-05-10T00:57:23;3.22;;;2.40;;
46767;SDS011;69007;48.978;18.066;2023-05-10T00:59:49;6.60;;;2.33;;
46767;SDS011;69007;48.978;18.066;2023-05-10T01:02:15;3.67;;;2.47;;
46767;SDS011;69007;48.978;18.066;2023-05-10T01:04:40;3.17;;;2.60;;
46767;SDS011;69007;48.978;18.066;2023-05-10T01:07:06;3.05;;;2.55;;
46767;SDS011;69007;48.978;18.066;2023-05-10T01:09:31;5.18;;;2.55;;
46767;SDS011;69007;48.978;18.066;2023-05-10T01:11:58;3.03;;;2.33;;
46767;SDS011;69007;48.978;18.066;2023-05-10T01:14:24;3.58;;;2.28;;
46767;SDS011;69007;48.978;18.066;2023-05-10T01:16:50;3.90;;;2.13;;
46767;SDS011;69007;48.978;18.066;2023-05-10T01:19:25;4.55;;;3.30;;
46767;SDS011;69007;48.978;18.066;2023-05-10T01:24:58;2.15;;;1.95;;
46767;SDS011;69007;48.978;18.066;2023-05-10T01:35:54;4.47;;;2.45;;
46767;SDS011;69007;48.978;18.066;2023-05-10T01:38:31;2.63;;;2.42;;
46767;SDS011;69007;48.978;18.066;2023-05-10T01:47:20;3.13;;;2.70;;
46767;SDS011;69007;48.978;18.066;2023-05-10T01:49:55;6.72;;;3.05;;
46767;SDS011;69007;48.978;18.066;2023-05-10T01:52:30;5.55;;;2.67;;
46767;SDS011;69007;48.978;18.066;2023-05-10T01:55:02;5.60;;;2.50;;
46767;SDS011;69007;48.978;18.066;2023-05-10T01:57:33;3.33;;;2.47;;
46767;SDS011;69007;48.978;18.066;2023-05-10T02:00:01;5.32;;;2.35;;
46767;SDS011;69007;48.978;18.066;2023-05-10T02:02:30;3.70;;;2.50;;
46767;SDS011;69007;48.978;18.066;2023-05-10T02:05:00;4.07;;;2.33;;
46767;SDS011;69007;48.978;18.066;2023-05-10T02:07:28;2.95;;;2.65;;
46767;SDS011;69007;48.978;18.066;2023-05-10T02:09:53;3.75;;;2.50;;
46767;SDS011;69007;48.978;18.066;2023-05-10T02:12:20;3.30;;;2.92;;
46767;SDS011;69007;48.978;18.066;2023-05-10T02:14:48;2.65;;;2.45;;
46767;SDS011;69007;48.978;18.066;2023-05-10T02:17:14;8.18;;;2.78;;
46767;SDS011;69007;48.978;18.066;2023-05-10T02:19:41;2.70;;;2.50;;
46767;SDS011;69007;48.978;18.066;2023-05-10T02:22:08;3.10;;;2.80;;
46767;SDS011;69007;48.978;18.066;2023-05-10T02:24:34;3.75;;;2.90;;
46767;SDS011;69007;48.978;18.066;2023-05-10T02:27:02;3.30;;;2.63;;
46767;SDS011;69007;48.978;18.066;2023-05-10T02:29:28;7.13;;;2.92;;
46767;SDS011;69007;48.978;18.066;2023-05-10T02:31:56;4.30;;;2.65;;
46767;SDS011;69007;48.978;18.066;2023-05-10T02:34:23;3.42;;;2.58;;
46767;SDS011;69007;48.978;18.066;2023-05-10T02:36:50;4.97;;;2.83;;
46767;SDS011;69007;48.978;18.066;2023-05-10T02:39:17;4.78;;;3.15;;
46767;SDS011;69007;48.978;18.066;2023-05-10T02:41:45;5.18;;;2.88;;
46767;SDS011;69007;48.978;18.066;2023-05-10T02:44:13;3.92;;;2.78;;
46767;SDS011;69007;48.978;18.066;2023-05-10T02:46:40;3.10;;;2.80;;
46767;SDS011;69007;48.978;18.066;2023-05-10T02:49:05;5.63;;;3.58;;
46767;SDS011;69007;48.978;18.066;2023-05-10T02:51:32;4.50;;;3.08;;
46767;SDS011;69007;48.978;18.066;2023-05-10T02:54:06;2.95;;;2.65;;
46767;SDS011;69007;48.978;18.066;2023-05-10T02:56:36;3.22;;;2.45;;
46767;SDS011;69007;48.978;18.066;2023-05-10T02:59:05;4.00;;;3.25;;
46767;SDS011;69007;48.978;18.066;2023-05-10T03:01:31;5.25;;;3.13;;
46767;SDS011;69007;48.978;18.066;2023-05-10T03:03:56;6.53;;;2.97;;
46767;SDS011;69007;48.978;18.066;2023-05-10T03:06:22;4.45;;;2.80;;
46767;SDS011;69007;48.978;18.066;2023-05-10T03:08:47;7.57;;;2.97;;
46767;SDS011;69007;48.978;18.066;2023-05-10T03:11:32;4.15;;;3.05;;
46767;SDS011;69007;48.978;18.066;2023-05-10T03:14:12;5.20;;;2.53;;
46767;SDS011;69007;48.978;18.066;2023-05-10T03:16:58;4.33;;;3.43;;
46767;SDS011;69007;48.978;18.066;2023-05-10T03:19:32;3.85;;;2.85;;
46767;SDS011;69007;48.978;18.066;2023-05-10T03:22:08;3.40;;;2.88;;
46767;SDS011;69007;48.978;18.066;2023-05-10T03:24:35;4.28;;;2.90;;
46767;SDS011;69007;48.978;18.066;2023-05-10T03:27:03;5.78;;;2.58;;
46767;SDS011;69007;48.978;18.066;2023-05-10T03:29:30;9.40;;;3.20;;
46767;SDS011;69007;48.978;18.066;2023-05-10T03:31:59;6.10;;;3.60;;
46767;SDS011;69007;48.978;18.066;2023-05-10T03:34:25;4.32;;;2.53;;
46767;SDS011;69007;48.978;18.066;2023-05-10T03:36:51;5.53;;;2.92;;
46767;SDS011;69007;48.978;18.066;2023-05-10T03:39:17;3.75;;;2.90;;
46767;SDS011;69007;48.978;18.066;2023-05-10T03:41:42;7.80;;;2.60;;
46767;SDS011;69007;48.978;18.066;2023-05-10T03:44:07;4.05;;;3.03;;
46767;SDS011;69007;48.978;18.066;2023-05-10T03:46:33;2.60;;;2.40;;
46767;SDS011;69007;48.978;18.066;2023-05-10T03:48:58;5.65;;;2.88;;
46767;SDS011;69007;48.978;18.066;2023-05-10T03:51:24;3.95;;;2.88;;
46767;SDS011;69007;48.978;18.066;2023-05-10T03:53:53;3.33;;;2.85;;
46767;SDS011;69007;48.978;18.066;2023-05-10T03:56:19;2.97;;;2.50;;
46767;SDS011;69007;48.978;18.066;2023-05-10T03:58:45;6.07;;;2.88;;
46767;SDS011;69007;48.978;18.066;2023-05-10T04:01:11;6.38;;;2.70;;
46767;SDS011;69007;48.978;18.066;2023-05-10T04:03:36;3.22;;;2.92;;
46767;SDS011;69007;48.978;18.066;2023-05-10T04:06:02;3.42;;;2.45;;
46767;SDS011;69007;48.978;18.066;2023-05-10T04:08:27;4.43;;;3.00;;
46767;SDS011;69007;48.978;18.066;2023-05-10T04:10:53;2.67;;;2.28;;
46767;SDS011;69007;48.978;18.066;2023-05-10T04:13:18;4.20;;;2.55;;
46767;SDS011;69007;48.978;18.066;2023-05-10T04:15:43;6.55;;;3.13;;
46767;SDS011;69007;48.978;18.066;2023-05-10T04:18:09;2.75;;;2.30;;
46767;SDS011;69007;48.978;18.066;2023-05-10T04:20:35;4.85;;;2.88;;
46767;SDS011;69007;48.978;18.066;2023-05-10T04:23:00;4.68;;;3.50;;
46767;SDS011;69007;48.978;18.066;2023-05-10T04:25:25;4.88;;;2.92;;
46767;SDS011;69007;48.978;18.066;2023-05-10T04:27:51;3.38;;;2.55;;
46767;SDS011;69007;48.978;18.066;2023-05-10T04:30:16;4.30;;;2.80;;
46767;SDS011;69007;48.978;18.066;2023-05-10T04:32:42;5.85;;;2.85;;
46767;SDS011;69007;48.978;18.066;2023-05-10T04:35:07;4.55;;;2.53;;
46767;SDS011;69007;48.978;18.066;2023-05-10T04:37:34;2.65;;;2.45;;
46767;SDS011;69007;48.978;18.066;2023-05-10T04:40:00;4.90;;;2.50;;
46767;SDS011;69007;48.978;18.066;2023-05-10T04:42:26;3.08;;;2.60;;
46767;SDS011;69007;48.978;18.066;2023-05-10T04:44:51;3.35;;;3.05;;
46767;SDS011;69007;48.978;18.066;2023-05-10T04:47:17;4.65;;;3.00;;
46767;SDS011;69007;48.978;18.066;2023-05-10T04:49:42;3.55;;;3.25;;
46767;SDS011;69007;48.978;18.066;2023-05-10T04:52:07;4.28;;;3.15;;
46767;SDS011;69007;48.978;18.066;2023-05-10T04:54:33;5.25;;;2.60;;
46767;SDS011;69007;48.978;18.066;2023-05-10T04:56:59;8.30;;;2.85;;
46767;SDS011;69007;48.978;18.066;2023-05-10T04:59:24;3.78;;;2.60;;
46767;SDS011;69007;48.978;18.066;2023-05-10T05:01:50;3.20;;;2.55;;
46767;SDS011;69007;48.978;18.066;2023-05-10T05:04:16;5.00;;;2.70;;
46767;SDS011;69007;48.978;18.066;2023-05-10T05:06:41;5.65;;;2.70;;
46767;SDS011;69007;48.978;18.066;2023-05-10T05:09:07;4.97;;;2.63;;
46767;SDS011;69007;48.978;18.066;2023-05-10T05:11:32;2.92;;;2.53;;
46767;SDS011;69007;48.978;18.066;2023-05-10T05:13:57;3.17;;;2.87;;
46767;SDS011;69007;48.978;18.066;2023-05-10T05:16:24;2.85;;;2.50;;
46767;SDS011;69007;48.978;18.066;2023-05-10T05:18:49;2.60;;;2.40;;
46767;SDS011;69007;48.978;18.066;2023-05-10T05:21:18;2.88;;;2.20;;
46767;SDS011;69007;48.978;18.066;2023-05-10T05:23:44;2.50;;;2.30;;
46767;SDS011;69007;48.978;18.066;2023-05-10T05:26:10;3.10;;;2.38;;
46767;SDS011;69007;48.978;18.066;2023-05-10T05:28:35;2.42;;;2.22;;
46767;SDS011;69007;48.978;18.066;2023-05-10T05:31:05;2.92;;;2.10;;
46767;SDS011;69007;48.978;18.066;2023-05-10T05:33:33;3.75;;;2.28;;
46767;SDS011;69007;48.978;18.066;2023-05-10T05:36:02;2.30;;;2.10;;
46767;SDS011;69007;48.978;18.066;2023-05-10T05:38:29;2.40;;;2.20;;
46767;SDS011;69007;48.978;18.066;2023-05-10T05:40:54;3.17;;;2.58;;
46767;SDS011;69007;48.978;18.066;2023-05-10T05:43:20;5.53;;;2.25;;
46767;SDS011;69007;48.978;18.066;2023-05-10T05:45:45;4.57;;;1.92;;
46767;SDS011;69007;48.978;18.066;2023-05-10T05:48:10;7.03;;;2.05;;
46767;SDS011;69007;48.978;18.066;2023-05-10T05:50:36;4.55;;;2.28;;
46767;SDS011;69007;48.978;18.066;2023-05-10T05:53:01;4.20;;;2.27;;
46767;SDS011;69007;48.978;18.066;2023-05-10T05:55:27;4.22;;;2.17;;
46767;SDS011;69007;48.978;18.066;2023-05-10T05:57:52;3.63;;;1.90;;
46767;SDS011;69007;48.978;18.066;2023-05-10T06:00:18;2.35;;;2.15;;
46767;SDS011;69007;48.978;18.066;2023-05-10T06:02:43;2.78;;;2.50;;
46767;SDS011;69007;48.978;18.066;2023-05-10T06:05:09;4.60;;;2.08;;
46767;SDS011;69007;48.978;18.066;2023-05-10T06:07:34;1.92;;;1.83;;
46767;SDS011;69007;48.978;18.066;2023-05-10T06:09:59;2.25;;;1.85;;
46767;SDS011;69007;48.978;18.066;2023-05-10T06:12:25;4.05;;;2.10;;
46767;SDS011;69007;48.978;18.066;2023-05-10T06:14:50;2.30;;;2.10;;
46767;SDS011;69007;48.978;18.066;2023-05-10T06:17:16;1.90;;;1.80;;
46767;SDS011;69007;48.978;18.066;2023-05-10T06:19:41;2.75;;;2.05;;
46767;SDS011;69007;48.978;18.066;2023-05-10T06:22:06;2.30;;;2.10;;
46767;SDS011;69007;48.978;18.066;2023-05-10T06:24:31;2.60;;;1.90;;
46767;SDS011;69007;48.978;18.066;2023-05-10T06:26:57;3.47;;;1.77;;
46767;SDS011;69007;48.978;18.066;2023-05-10T06:29:24;2.83;;;2.00;;
46767;SDS011;69007;48.978;18.066;2023-05-10T06:31:50;2.17;;;2.08;;
46767;SDS011;69007;48.978;18.066;2023-05-10T06:34:15;5.10;;;2.05;;
46767;SDS011;69007;48.978;18.066;2023-05-10T06:36:41;1.97;;;1.87;;
46767;SDS011;69007;48.978;18.066;2023-05-10T06:39:06;4.83;;;2.23;;
46767;SDS011;69007;48.978;18.066;2023-05-10T06:41:32;3.97;;;2.30;;
46767;SDS011;69007;48.978;18.066;2023-05-10T06:43:57;3.47;;;2.28;;
46767;SDS011;69007;48.978;18.066;2023-05-10T06:46:22;2.27;;;2.00;;
46767;SDS011;69007;48.978;18.066;2023-05-10T06:48:47;2.25;;;2.10;;
46767;SDS011;69007;48.978;18.066;2023-05-10T06:51:13;2.40;;;2.20;;
46767;SDS011;69007;48.978;18.066;2023-05-10T06:53:38;2.83;;;2.42;;
46767;SDS011;69007;48.978;18.066;2023-05-10T06:56:03;5.53;;;2.45;;
46767;SDS011;69007;48.978;18.066;2023-05-10T06:58:29;3.70;;;2.50;;
46767;SDS011;69007;48.978;18.066;2023-05-10T07:01:01;4.13;;;2.38;;
46767;SDS011;69007;48.978;18.066;2023-05-10T07:03:26;2.92;;;2.40;;
46767;SDS011;69007;48.978;18.066;2023-05-10T07:05:52;2.55;;;2.35;;
46767;SDS011;69007;48.978;18.066;2023-05-10T07:08:17;2.70;;;2.50;;
46767;SDS011;69007;48.978;18.066;2023-05-10T07:10:43;3.45;;;2.40;;
46767;SDS011;69007;48.978;18.066;2023-05-10T07:13:08;4.53;;;2.28;;
46767;SDS011;69007;48.978;18.066;2023-05-10T07:15:34;2.35;;;2.15;;
46767;SDS011;69007;48.978;18.066;2023-05-10T07:18:00;2.60;;;2.40;;
46767;SDS011;69007;48.978;18.066;2023-05-10T07:20:25;2.95;;;2.28;;
46767;SDS011;69007;48.978;18.066;2023-05-10T07:22:50;2.22;;;2.03;;
46767;SDS011;69007;48.978;18.066;2023-05-10T07:25:16;5.43;;;2.17;;
46767;SDS011;69007;48.978;18.066;2023-05-10T07:27:41;2.95;;;2.25;;
46767;SDS011;69007;48.978;18.066;2023-05-10T07:30:07;2.90;;;2.22;;
46767;SDS011;69007;48.978;18.066;2023-05-10T07:32:32;2.58;;;2.38;;
46767;SDS011;69007;48.978;18.066;2023-05-10T07:34:58;2.67;;;2.22;;
46767;SDS011;69007;48.978;18.066;2023-05-10T07:37:23;3.55;;;2.47;;
46767;SDS011;69007;48.978;18.066;2023-05-10T07:39:48;2.45;;;2.25;;
46767;SDS011;69007;48.978;18.066;2023-05-10T07:42:14;4.07;;;2.47;;
46767;SDS011;69007;48.978;18.066;2023-05-10T07:44:39;5.15;;;2.30;;
46767;SDS011;69007;48.978;18.066;2023-05-10T07:47:04;2.88;;;2.40;;
46767;SDS011;69007;48.978;18.066;2023-05-10T07:49:29;2.63;;;2.33;;
46767;SDS011;69007;48.978;18.066;2023-05-10T07:51:55;2.53;;;2.10;;
46767;SDS011;69007;48.978;18.066;2023-05-10T07:54:20;3.35;;;2.15;;
46767;SDS011;69007;48.978;18.066;2023-05-10T07:56:46;4.65;;;2.30;;
46767;SDS011;69007;48.978;18.066;2023-05-10T07:59:15;4.00;;;2.03;;
46767;SDS011;69007;48.978;18.066;2023-05-10T08:01:42;2.97;;;2.00;;
46767;SDS011;69007;48.978;18.066;2023-05-10T08:04:07;4.63;;;2.28;;
46767;SDS011;69007;48.978;18.066;2023-05-10T08:06:33;2.55;;;2.10;;
46767;SDS011;69007;48.978;18.066;2023-05-10T08:08:59;2.90;;;2.20;;
46767;SDS011;69007;48.978;18.066;2023-05-10T08:11:24;2.20;;;2.00;;
46767;SDS011;69007;48.978;18.066;2023-05-10T08:13:50;4.82;;;2.30;;
46767;SDS011;69007;48.978;18.066;2023-05-10T08:16:16;2.00;;;1.80;;
46767;SDS011;69007;48.978;18.066;2023-05-10T08:18:43;2.15;;;1.98;;
46767;SDS011;69007;48.978;18.066;2023-05-10T08:21:12;3.28;;;2.58;;
46767;SDS011;69007;48.978;18.066;2023-05-10T08:23:39;5.82;;;2.20;;
46767;SDS011;69007;48.978;18.066;2023-05-10T08:26:05;2.58;;;1.83;;
46767;SDS011;69007;48.978;18.066;2023-05-10T08:28:31;2.50;;;2.30;;
46767;SDS011;69007;48.978;18.066;2023-05-10T08:30:56;2.20;;;2.00;;
46767;SDS011;69007;48.978;18.066;2023-05-10T08:33:22;4.50;;;2.28;;
46767;SDS011;69007;48.978;18.066;2023-05-10T08:35:47;4.63;;;1.90;;
46767;SDS011;69007;48.978;18.066;2023-05-10T08:38:13;3.45;;;2.03;;
46767;SDS011;69007;48.978;18.066;2023-05-10T08:40:41;4.97;;;2.35;;
46767;SDS011;69007;48.978;18.066;2023-05-10T08:43:09;2.22;;;2.03;;
46767;SDS011;69007;48.978;18.066;2023-05-10T08:45:37;1.70;;;1.60;;
46767;SDS011;69007;48.978;18.066;2023-05-10T08:48:07;2.15;;;1.90;;
46767;SDS011;69007;48.978;18.066;2023-05-10T08:50:37;2.58;;;2.38;;
46767;SDS011;69007;48.978;18.066;2023-05-10T08:53:05;2.03;;;1.83;;
46767;SDS011;69007;48.978;18.066;2023-05-10T08:55:34;2.30;;;1.80;;
46767;SDS011;69007;48.978;18.066;2023-05-10T08:58:01;2.60;;;2.40;;
46767;SDS011;69007;48.978;18.066;2023-05-10T09:00:27;1.88;;;1.77;;
46767;SDS011;69007;48.978;18.066;2023-05-10T09:02:53;3.90;;;1.80;;
46767;SDS011;69007;48.978;18.066;2023-05-10T09:05:19;2.95;;;2.75;;
46767;SDS011;69007;48.978;18.066;2023-05-10T09:07:44;1.95;;;1.85;;
46767;SDS011;69007;48.978;18.066;2023-05-10T09:10:10;2.25;;;1.90;;
46767;SDS011;69007;48.978;18.066;2023-05-10T09:12:36;2.13;;;1.92;;
46767;SDS011;69007;48.978;18.066;2023-05-10T09:15:03;2.80;;;2.20;;
46767;SDS011;69007;48.978;18.066;2023-05-10T09:17:30;3.95;;;2.10;;
46767;SDS011;69007;48.978;18.066;2023-05-10T09:19:59;2.35;;;1.98;;
46767;SDS011;69007;48.978;18.066;2023-05-10T09:22:25;2.67;;;2.10;;
46767;SDS011;69007;48.978;18.066;2023-05-10T09:25:07;5.88;;;2.22;;
46767;SDS011;69007;48.978;18.066;2023-05-10T09:27:36;2.88;;;2.38;;
46767;SDS011;69007;48.978;18.066;2023-05-10T09:30:02;2.20;;;2.00;;
46767;SDS011;69007;48.978;18.066;2023-05-10T09:35:06;2.97;;;1.98;;
46767;SDS011;69007;48.978;18.066;2023-05-10T09:37:35;10.75;;;2.08;;
46767;SDS011;69007;48.978;18.066;2023-05-10T09:40:03;3.10;;;1.95;;
46767;SDS011;69007;48.978;18.066;2023-05-10T09:42:29;2.72;;;2.28;;
46767;SDS011;69007;48.978;18.066;2023-05-10T09:44:59;2.30;;;2.10;;
46767;SDS011;69007;48.978;18.066;2023-05-10T09:47:28;3.20;;;2.17;;
46767;SDS011;69007;48.978;18.066;2023-05-10T09:49:54;2.50;;;2.10;;
46767;SDS011;69007;48.978;18.066;2023-05-10T09:52:22;5.55;;;1.98;;
46767;SDS011;69007;48.978;18.066;2023-05-10T09:54:54;2.15;;;2.00;;
46767;SDS011;69007;48.978;18.066;2023-05-10T09:57:23;3.90;;;2.40;;
46767;SDS011;69007;48.978;18.066;2023-05-10T09:59:50;3.28;;;2.17;;
46767;SDS011;69007;48.978;18.066;2023-05-10T10:02:16;2.22;;;2.00;;
46767;SDS011;69007;48.978;18.066;2023-05-10T10:04:42;3.95;;;2.25;;
46767;SDS011;69007;48.978;18.066;2023-05-10T10:07:08;3.13;;;2.22;;
46767;SDS011;69007;48.978;18.066;2023-05-10T10:09:34;2.85;;;2.15;;
46767;SDS011;69007;48.978;18.066;2023-05-10T10:12:00;3.13;;;1.85;;
46767;SDS011;69007;48.978;18.066;2023-05-10T10:14:27;1.85;;;1.75;;
46767;SDS011;69007;48.978;18.066;2023-05-10T10:16:53;3.53;;;2.13;;
46767;SDS011;69007;48.978;18.066;2023-05-10T10:19:19;2.00;;;1.80;;
46767;SDS011;69007;48.978;18.066;2023-05-10T10:21:46;2.30;;;2.10;;
46767;SDS011;69007;48.978;18.066;2023-05-10T10:24:14;5.38;;;1.70;;
46767;SDS011;69007;48.978;18.066;2023-05-10T10:26:40;2.97;;;2.25;;
46767;SDS011;69007;48.978;18.066;2023-05-10T10:31:45;2.33;;;2.13;;
46767;SDS011;69007;48.978;18.066;2023-05-10T10:34:24;8.13;;;2.17;;
46767;SDS011;69007;48.978;18.066;2023-05-10T10:36:54;6.80;;;2.10;;
46767;SDS011;69007;48.978;18.066;2023-05-10T10:39:21;1.80;;;1.70;;
46767;SDS011;69007;48.978;18.066;2023-05-10T10:41:53;1.98;;;1.85;;
46767;SDS011;69007;48.978;18.066;2023-05-10T10:46:59;2.22;;;2.03;;
46767;SDS011;69007;48.978;18.066;2023-05-10T10:54:58;2.80;;;2.38;;
46767;SDS011;69007;48.978;18.066;2023-05-10T11:02:44;1.88;;;1.60;;
46767;SDS011;69007;48.978;18.066;2023-05-10T11:08:07;3.55;;;1.95;;
46767;SDS011;69007;48.978;18.066;2023-05-10T11:10:38;2.10;;;1.90;;
46767;SDS011;69007;48.978;18.066;2023-05-10T11:13:05;4.40;;;2.10;;
46767;SDS011;69007;48.978;18.066;2023-05-10T11:15:36;2.22;;;1.90;;
46767;SDS011;69007;48.978;18.066;2023-05-10T11:18:19;3.00;;;1.80;;
46767;SDS011;69007;48.978;18.066;2023-05-10T11:26:12;5.90;;;1.92;;
46767;SDS011;69007;48.978;18.066;2023-05-10T11:28:46;2.10;;;1.90;;
46767;SDS011;69007;48.978;18.066;2023-05-10T11:31:16;1.98;;;1.85;;
46767;SDS011;69007;48.978;18.066;2023-05-10T11:33:46;2.75;;;2.08;;
46767;SDS011;69007;48.978;18.066;2023-05-10T11:38:46;2.30;;;2.10;;
46767;SDS011;69007;48.978;18.066;2023-05-10T11:41:12;2.00;;;1.80;;
46767;SDS011;69007;48.978;18.066;2023-05-10T11:43:39;2.53;;;2.00;;
46767;SDS011;69007;48.978;18.066;2023-05-10T11:46:08;3.10;;;1.85;;
46767;SDS011;69007;48.978;18.066;2023-05-10T11:48:35;2.08;;;1.88;;
46767;SDS011;69007;48.978;18.066;2023-05-10T11:51:03;2.50;;;2.00;;
46767;SDS011;69007;48.978;18.066;2023-05-10T11:53:31;2.50;;;2.08;;
46767;SDS011;69007;48.978;18.066;2023-05-10T11:56:07;1.98;;;1.80;;
46767;SDS011;69007;48.978;18.066;2023-05-10T11:58:34;1.83;;;1.73;;
46767;SDS011;69007;48.978;18.066;2023-05-10T12:01:01;3.10;;;1.80;;
46767;SDS011;69007;48.978;18.066;2023-05-10T12:03:27;2.55;;;1.90;;
46767;SDS011;69007;48.978;18.066;2023-05-10T12:05:54;2.17;;;1.70;;
46767;SDS011;69007;48.978;18.066;2023-05-10T12:08:21;4.45;;;2.17;;
46767;SDS011;69007;48.978;18.066;2023-05-10T12:10:48;2.85;;;1.88;;
46767;SDS011;69007;48.978;18.066;2023-05-10T12:13:14;4.30;;;1.80;;
46767;SDS011;69007;48.978;18.066;2023-05-10T12:15:40;2.30;;;2.10;;
46767;SDS011;69007;48.978;18.066;2023-05-10T12:18:08;2.42;;;2.13;;
46767;SDS011;69007;48.978;18.066;2023-05-10T12:20:35;1.92;;;1.83;;
46767;SDS011;69007;48.978;18.066;2023-05-10T12:23:01;1.83;;;1.73;;
46767;SDS011;69007;48.978;18.066;2023-05-10T12:25:32;4.03;;;1.80;;
46767;SDS011;69007;48.978;18.066;2023-05-10T12:27:58;1.90;;;1.80;;
46767;SDS011;69007;48.978;18.066;2023-05-10T12:30:28;3.22;;;2.17;;
46767;SDS011;69007;48.978;18.066;2023-05-10T12:32:59;2.10;;;2.00;;
46767;SDS011;69007;48.978;18.066;2023-05-10T12:35:26;1.90;;;1.80;;
46767;SDS011;69007;48.978;18.066;2023-05-10T12:37:51;3.08;;;2.00;;
46767;SDS011;69007;48.978;18.066;2023-05-10T12:40:16;2.57;;;2.13;;
46767;SDS011;69007;48.978;18.066;2023-05-10T12:42:42;2.85;;;1.80;;
46767;SDS011;69007;48.978;18.066;2023-05-10T12:45:09;3.08;;;2.03;;
46767;SDS011;69007;48.978;18.066;2023-05-10T12:47:35;5.43;;;1.70;;
46767;SDS011;69007;48.978;18.066;2023-05-10T12:50:01;3.45;;;2.00;;
46767;SDS011;69007;48.978;18.066;2023-05-10T12:52:27;3.40;;;1.90;;
46767;SDS011;69007;48.978;18.066;2023-05-10T12:54:53;4.57;;;1.70;;
46767;SDS011;69007;48.978;18.066;2023-05-10T12:57:22;4.90;;;1.75;;
46767;SDS011;69007;48.978;18.066;2023-05-10T12:59:47;1.63;;;1.52;;
46767;SDS011;69007;48.978;18.066;2023-05-10T13:02:13;5.50;;;2.20;;
46767;SDS011;69007;48.978;18.066;2023-05-10T13:04:39;1.90;;;1.80;;
46767;SDS011;69007;48.978;18.066;2023-05-10T13:07:05;2.45;;;1.98;;
46767;SDS011;69007;48.978;18.066;2023-05-10T13:09:31;1.75;;;1.65;;
46767;SDS011;69007;48.978;18.066;2023-05-10T13:11:56;2.22;;;1.85;;
46767;SDS011;69007;48.978;18.066;2023-05-10T13:14:22;1.73;;;1.63;;
46767;SDS011;69007;48.978;18.066;2023-05-10T13:16:47;5.10;;;1.52;;
46767;SDS011;69007;48.978;18.066;2023-05-10T13:19:16;2.35;;;1.90;;
46767;SDS011;69007;48.978;18.066;2023-05-10T13:21:42;2.20;;;1.40;;
46767;SDS011;69007;48.978;18.066;2023-05-10T13:24:09;2.00;;;1.60;;
46767;SDS011;69007;48.978;18.066;2023-05-10T13:26:35;6.10;;;2.00;;
46767;SDS011;69007;48.978;18.066;2023-05-10T13:29:01;1.85;;;1.73;;
46767;SDS011;69007;48.978;18.066;2023-05-10T13:31:26;1.90;;;1.80;;
46767;SDS011;69007;48.978;18.066;2023-05-10T13:33:52;1.67;;;1.55;;
46767;SDS011;69007;48.978;18.066;2023-05-10T13:36:17;1.73;;;1.63;;
46767;SDS011;69007;48.978;18.066;2023-05-10T13:38:42;2.55;;;1.98;;
46767;SDS011;69007;48.978;18.066;2023-05-10T13:41:08;5.63;;;1.58;;
46767;SDS011;69007;48.978;18.066;2023-05-10T13:43:33;1.63;;;1.52;;
46767;SDS011;69007;48.978;18.066;2023-05-10T13:45:58;1.65;;;1.55;;
46767;SDS011;69007;48.978;18.066;2023-05-10T13:48:24;2.03;;;1.50;;
46767;SDS011;69007;48.978;18.066;2023-05-10T13:50:49;2.47;;;1.65;;
46767;SDS011;69007;48.978;18.066;2023-05-10T13:53:14;1.90;;;1.80;;
46767;SDS011;69007;48.978;18.066;2023-05-10T13:55:40;1.73;;;1.60;;
46767;SDS011;69007;48.978;18.066;2023-05-10T13:58:05;6.70;;;1.92;;
46767;SDS011;69007;48.978;18.066;2023-05-10T14:00:30;1.98;;;1.80;;
46767;SDS011;69007;48.978;18.066;2023-05-10T14:02:56;2.90;;;1.48;;
46767;SDS011;69007;48.978;18.066;2023-05-10T14:05:21;1.73;;;1.63;;
46767;SDS011;69007;48.978;18.066;2023-05-10T14:07:47;1.60;;;1.50;;
46767;SDS011;69007;48.978;18.066;2023-05-10T14:10:13;4.13;;;1.92;;
46767;SDS011;69007;48.978;18.066;2023-05-10T14:12:38;2.17;;;1.63;;
46767;SDS011;69007;48.978;18.066;2023-05-10T14:15:04;1.60;;;1.50;;
46767;SDS011;69007;48.978;18.066;2023-05-10T14:17:31;3.53;;;1.90;;
46767;SDS011;69007;48.978;18.066;2023-05-10T14:19:56;2.15;;;1.70;;
46767;SDS011;69007;48.978;18.066;2023-05-10T14:22:22;2.88;;;2.00;;
46767;SDS011;69007;48.978;18.066;2023-05-10T14:24:47;1.73;;;1.60;;
46767;SDS011;69007;48.978;18.066;2023-05-10T14:27:13;1.92;;;1.83;;
46767;SDS011;69007;48.978;18.066;2023-05-10T14:29:39;2.30;;;2.10;;
46767;SDS011;69007;48.978;18.066;2023-05-10T14:32:04;3.42;;;1.92;;
46767;SDS011;69007;48.978;18.066;2023-05-10T14:34:30;1.75;;;1.63;;
46767;SDS011;69007;48.978;18.066;2023-05-10T14:36:55;2.40;;;1.83;;
46767;SDS011;69007;48.978;18.066;2023-05-10T14:39:21;6.68;;;2.00;;
46767;SDS011;69007;48.978;18.066;2023-05-10T14:41:46;2.35;;;1.70;;
46767;SDS011;69007;48.978;18.066;2023-05-10T14:44:12;3.22;;;1.95;;
46767;SDS011;69007;48.978;18.066;2023-05-10T14:46:38;1.77;;;1.52;;
46767;SDS011;69007;48.978;18.066;2023-05-10T14:49:04;4.13;;;1.67;;
46767;SDS011;69007;48.978;18.066;2023-05-10T14:51:29;3.45;;;1.95;;
46767;SDS011;69007;48.978;18.066;2023-05-10T14:53:55;1.70;;;1.60;;
46767;SDS011;69007;48.978;18.066;2023-05-10T14:56:21;1.70;;;1.48;;
46767;SDS011;69007;48.978;18.066;2023-05-10T14:58:47;1.92;;;1.50;;
46767;SDS011;69007;48.978;18.066;2023-05-10T15:01:12;1.58;;;1.48;;
46767;SDS011;69007;48.978;18.066;2023-05-10T15:03:37;1.60;;;1.50;;
46767;SDS011;69007;48.978;18.066;2023-05-10T15:06:03;1.40;;;1.30;;
46767;SDS011;69007;48.978;18.066;2023-05-10T15:08:29;4.60;;;1.42;;
46767;SDS011;69007;48.978;18.066;2023-05-10T15:10:54;1.98;;;1.50;;
46767;SDS011;69007;48.978;18.066;2023-05-10T15:13:20;2.17;;;1.50;;
46767;SDS011;69007;48.978;18.066;2023-05-10T15:15:46;5.60;;;1.50;;
46767;SDS011;69007;48.978;18.066;2023-05-10T15:18:11;1.63;;;1.50;;